Charleston Air Force Base-International Airport
KCHS : now visible

Airfield :











YOU CAN JOIN US ON...

 
LOGIN :

Register | Disclaimer

   EN    FR    IT 

 









Legend :    VFR   Marginal VFR   IFR   Intensive IFR   Very Intensive IFR
Visi :
Ceiling :
>= 8 km
>= 3000ft
5 to 8 km
1000 to 3000 ft
1500m to 5 km
500 to 1000 ft
800 to 1500m
200 to 500 ft
< 800m
< 200 ft
Symbols :   Thunderstorms  Fog  Heavy snow  Heavy precipitations  Wind > 20 kt






- Airport Elevation : 46 ft
- IATA code : CHS


KCHS - Charleston Air Force Base-International

CURRENT METAR :
  • 072056Z 25010KT 10SM SCT065 BKN250 29/14 A2992 RMK AO2 SLP133 T02940144 56021

EXPIRED METARs :
  • 071956Z 28012KT 10SM SCT065 SCT150 BKN250 31/14 A2993 RMK AO2 SLP134 T03060139
  • 071856Z 28012KT 10SM SCT060 BKN150 BKN250 31/14 A2996 RMK AO2 SLP144 T03060139

TAF KCHS
Valid from the 07 at 20:00 until the 08 at 18:00 UTC


072003Z 0720/0818 23013G20KT P6SM VCSH SCT060
FM080000 24006KT P6SM BKN080
FM081300 25010KT P6SM BKN050



MET'MAP, your aeronautical weather chart ! - Copyright ORBIFLY December 2007 - Disclaimer

ORBIFLY MET'MAP TEAM :

Programming & Development : Alexandra Zaïnal
Concept & original design : Baudouin d'Aumeries
Assistance for programming : Marc-Olivier Méhu
Technical & hardware support : Manuel Goepfert

Contact : metmap@orbifly.com




SOURCES & CREDITS :

   NOAA       Earth
Advisory